createdAt,value
2017-12-24T00:01:08.916Z,9.87
2017-12-24T00:03:36.445Z,9.85
2017-12-24T00:06:03.982Z,9.90
2017-12-24T00:08:31.572Z,9.91
2017-12-24T00:10:59.106Z,9.94
2017-12-24T00:13:26.627Z,9.91
2017-12-24T00:15:54.145Z,9.92
2017-12-24T00:18:21.653Z,9.89
2017-12-24T00:20:49.164Z,9.91
2017-12-24T00:23:16.684Z,9.91
2017-12-24T00:25:44.197Z,9.94
2017-12-24T00:28:11.730Z,9.95
2017-12-24T00:30:39.242Z,9.93
2017-12-24T00:33:06.757Z,9.95
2017-12-24T00:35:34.299Z,9.96
2017-12-24T00:38:01.822Z,9.95
2017-12-24T00:40:29.337Z,9.95
2017-12-24T00:42:56.845Z,9.94
2017-12-24T00:45:24.359Z,9.96
2017-12-24T00:47:51.876Z,9.96
2017-12-24T00:50:19.390Z,9.98
2017-12-24T00:52:46.904Z,10.03
2017-12-24T00:55:14.422Z,10.00
2017-12-24T00:57:41.946Z,10.01
2017-12-24T01:00:09.466Z,9.99
2017-12-24T01:02:36.977Z,9.98
2017-12-24T01:05:04.500Z,10.02
2017-12-24T01:07:32.017Z,10.02
2017-12-24T01:09:59.543Z,10.02
2017-12-24T01:12:27.061Z,10.02
2017-12-24T01:14:54.578Z,10.02
2017-12-24T01:17:22.095Z,10.05
2017-12-24T01:19:49.621Z,10.01
2017-12-24T01:22:17.142Z,10.05
2017-12-24T01:24:44.668Z,10.06
2017-12-24T01:27:12.193Z,10.04
2017-12-24T01:29:39.717Z,10.08
2017-12-24T01:32:07.234Z,10.05
2017-12-24T01:34:34.748Z,10.04
2017-12-24T01:37:02.256Z,10.06
2017-12-24T01:39:29.774Z,10.03
2017-12-24T01:41:57.305Z,10.05
2017-12-24T01:44:24.817Z,10.07
2017-12-24T01:46:52.328Z,10.05
2017-12-24T01:49:20.653Z,10.07
2017-12-24T01:51:48.170Z,10.12
2017-12-24T01:54:15.690Z,10.08
2017-12-24T01:56:43.213Z,10.11
2017-12-24T01:59:10.742Z,10.09
2017-12-24T02:01:38.265Z,10.09
2017-12-24T02:04:05.782Z,10.12
2017-12-24T02:06:33.302Z,10.16
2017-12-24T02:09:00.816Z,10.14
2017-12-24T02:11:28.332Z,10.11
2017-12-24T02:13:55.856Z,10.13
2017-12-24T02:16:23.369Z,10.09
2017-12-24T02:18:50.893Z,10.10
2017-12-24T02:21:18.406Z,10.13
2017-12-24T02:23:45.938Z,10.14
2017-12-24T02:26:13.452Z,10.13
2017-12-24T02:28:40.960Z,10.16
2017-12-24T02:31:08.475Z,10.20
2017-12-24T02:33:36.007Z,10.16
2017-12-24T02:36:03.534Z,10.22
2017-12-24T02:38:31.059Z,10.19
2017-12-24T02:40:58.585Z,10.20
2017-12-24T02:43:26.102Z,10.24
2017-12-24T02:45:53.628Z,10.26
2017-12-24T02:48:21.145Z,10.25
2017-12-24T02:50:48.661Z,10.26
2017-12-24T02:53:16.172Z,10.24
2017-12-24T02:55:43.696Z,10.24
2017-12-24T02:58:11.221Z,10.24
2017-12-24T03:00:38.742Z,10.26
2017-12-24T03:03:06.269Z,10.28
2017-12-24T03:05:33.798Z,10.27
2017-12-24T03:08:01.321Z,10.30
2017-12-24T03:10:28.857Z,10.26
2017-12-24T03:12:56.373Z,10.31
2017-12-24T03:15:23.884Z,10.25
2017-12-24T03:17:51.405Z,10.31
2017-12-24T03:20:18.927Z,10.31
2017-12-24T03:22:46.450Z,10.31
2017-12-24T03:25:13.973Z,10.32
2017-12-24T03:27:41.489Z,10.33
2017-12-24T03:30:09.014Z,10.33
2017-12-24T03:32:36.529Z,10.38
2017-12-24T03:35:04.077Z,10.35
2017-12-24T03:37:31.608Z,10.35
2017-12-24T03:39:59.129Z,10.36
2017-12-24T03:42:26.658Z,10.37
2017-12-24T03:44:54.185Z,10.33
2017-12-24T03:47:21.720Z,10.34
2017-12-24T03:49:49.236Z,10.33
2017-12-24T03:52:16.752Z,10.34
2017-12-24T03:54:44.272Z,10.35
2017-12-24T03:57:11.790Z,10.32
2017-12-24T03:59:39.315Z,10.32
2017-12-24T04:02:06.828Z,10.37
2017-12-24T04:04:34.349Z,10.34
2017-12-24T04:07:01.860Z,10.34
2017-12-24T04:09:29.398Z,10.34
2017-12-24T04:11:56.917Z,10.37
2017-12-24T04:14:24.436Z,10.35
2017-12-24T04:16:51.955Z,10.35
2017-12-24T04:19:19.475Z,10.30
2017-12-24T04:21:46.993Z,10.32
2017-12-24T04:24:14.522Z,10.33
2017-12-24T04:26:42.042Z,10.34
2017-12-24T04:29:09.560Z,10.32
2017-12-24T04:31:37.083Z,10.37
2017-12-24T04:34:04.610Z,10.35
2017-12-24T04:36:32.136Z,10.33
2017-12-24T04:38:59.648Z,10.32
2017-12-24T04:41:27.165Z,10.34
2017-12-24T04:43:54.681Z,10.33
2017-12-24T04:46:22.192Z,10.35
2017-12-24T04:48:49.717Z,10.35
2017-12-24T04:51:17.240Z,10.33
2017-12-24T04:53:44.760Z,10.34
2017-12-24T04:56:12.281Z,10.30
2017-12-24T04:58:39.796Z,10.31
2017-12-24T05:01:07.318Z,10.31
2017-12-24T05:03:34.841Z,10.32
2017-12-24T05:06:02.365Z,10.34
2017-12-24T05:08:29.892Z,10.32
2017-12-24T05:10:57.403Z,10.35
2017-12-24T05:13:24.925Z,10.31
2017-12-24T05:15:52.446Z,10.32
2017-12-24T05:18:19.981Z,10.34
2017-12-24T05:20:47.504Z,10.32
2017-12-24T05:23:15.040Z,10.32
2017-12-24T05:25:42.553Z,10.33
2017-12-24T05:28:10.074Z,10.31
2017-12-24T05:30:37.597Z,10.28
2017-12-24T05:33:05.112Z,10.30
2017-12-24T05:35:32.629Z,10.32
2017-12-24T05:38:00.156Z,10.35
2017-12-24T05:40:27.673Z,10.31
2017-12-24T05:42:55.197Z,10.31
2017-12-24T05:45:22.718Z,10.32
2017-12-24T05:47:50.242Z,10.31
2017-12-24T05:50:17.774Z,10.35
2017-12-24T05:52:45.289Z,10.29
2017-12-24T05:55:12.818Z,10.30
2017-12-24T05:57:40.338Z,10.28
2017-12-24T06:00:07.869Z,10.28
2017-12-24T06:02:35.386Z,10.21
2017-12-24T06:05:02.906Z,10.23
2017-12-24T06:07:30.426Z,10.20
2017-12-24T06:09:57.948Z,10.26
2017-12-24T06:12:25.462Z,10.21
2017-12-24T06:14:52.993Z,10.22
2017-12-24T06:17:20.510Z,10.23
2017-12-24T06:19:48.024Z,10.23
2017-12-24T06:22:15.547Z,10.21
2017-12-24T06:24:43.070Z,10.22
2017-12-24T06:27:10.589Z,10.22
2017-12-24T06:29:38.108Z,10.21
2017-12-24T06:32:05.625Z,10.17
2017-12-24T06:34:33.153Z,10.17
2017-12-24T06:37:00.665Z,10.19
2017-12-24T06:39:28.189Z,10.18
2017-12-24T06:41:55.716Z,10.14
2017-12-24T06:44:23.228Z,10.21
2017-12-24T06:46:50.750Z,10.24
2017-12-24T06:49:18.273Z,10.20
2017-12-24T06:51:45.790Z,10.19
2017-12-24T06:54:13.306Z,10.17
2017-12-24T06:56:40.824Z,10.19
2017-12-24T06:59:08.346Z,10.24
2017-12-24T07:01:35.867Z,10.19
2017-12-24T07:04:03.376Z,10.18
2017-12-24T07:06:30.902Z,10.20
2017-12-24T07:08:58.416Z,10.20
2017-12-24T07:11:25.942Z,10.19
2017-12-24T07:13:53.456Z,10.21
2017-12-24T07:16:20.975Z,10.24
2017-12-24T07:18:48.503Z,10.22
2017-12-24T07:21:16.016Z,10.25
2017-12-24T07:23:43.548Z,10.24
2017-12-24T07:26:11.069Z,10.20
2017-12-24T07:28:38.586Z,10.26
2017-12-24T07:31:06.109Z,10.24
2017-12-24T07:33:33.629Z,10.22
2017-12-24T07:36:01.151Z,10.26
2017-12-24T07:38:28.700Z,10.21
2017-12-24T07:40:56.225Z,10.22
2017-12-24T07:43:23.740Z,10.22
2017-12-24T07:45:51.254Z,10.29
2017-12-24T07:48:18.783Z,10.30
2017-12-24T07:50:46.308Z,10.25
2017-12-24T07:53:13.831Z,10.28
2017-12-24T07:55:41.344Z,10.26
2017-12-24T07:58:08.874Z,10.27
2017-12-24T08:00:36.393Z,10.33
2017-12-24T08:03:03.905Z,10.31
2017-12-24T08:05:31.423Z,10.34
2017-12-24T08:07:58.948Z,10.30
2017-12-24T08:10:26.479Z,10.31
2017-12-24T08:12:53.999Z,10.33
2017-12-24T08:15:21.530Z,10.34
2017-12-24T08:17:49.059Z,10.37
2017-12-24T08:20:16.585Z,10.30
2017-12-24T08:22:44.097Z,10.36
2017-12-24T08:25:11.625Z,10.34
2017-12-24T08:27:39.159Z,10.33
2017-12-24T08:30:06.679Z,10.37
2017-12-24T08:32:34.206Z,10.32
2017-12-24T08:35:01.726Z,10.34
2017-12-24T08:37:29.255Z,10.34
2017-12-24T08:39:56.790Z,10.36
2017-12-24T08:42:24.314Z,10.42
2017-12-24T08:44:52.091Z,10.48
2017-12-24T08:47:19.610Z,10.45
2017-12-24T08:49:47.157Z,10.54
2017-12-24T08:52:14.684Z,10.49
2017-12-24T08:54:42.204Z,10.57
2017-12-24T08:57:09.739Z,10.55
2017-12-24T08:59:37.261Z,10.66
2017-12-24T09:02:04.779Z,10.66
2017-12-24T09:04:32.314Z,10.67
2017-12-24T09:06:59.865Z,10.61
2017-12-24T09:09:27.456Z,10.63
2017-12-24T09:11:54.988Z,10.56
2017-12-24T09:14:22.552Z,10.58
2017-12-24T09:16:50.153Z,10.60
2017-12-24T09:19:17.700Z,10.56
2017-12-24T09:21:45.217Z,10.63
2017-12-24T09:24:12.747Z,10.62
2017-12-24T09:26:40.394Z,10.59
2017-12-24T09:29:07.925Z,10.61
2017-12-24T09:31:35.515Z,10.65
2017-12-24T09:34:03.074Z,10.59
2017-12-24T09:36:30.621Z,10.68
2017-12-24T09:38:58.141Z,10.68
2017-12-24T09:41:25.708Z,10.61
2017-12-24T09:43:53.309Z,10.67
2017-12-24T09:46:20.863Z,10.59
2017-12-24T09:48:48.436Z,10.62
2017-12-24T09:51:15.995Z,10.63
2017-12-24T09:53:43.527Z,10.56
2017-12-24T09:56:11.046Z,10.57
2017-12-24T09:58:38.577Z,10.58
2017-12-24T10:01:06.485Z,10.56
2017-12-24T10:03:34.043Z,10.59
2017-12-24T10:06:01.578Z,10.58
2017-12-24T10:08:29.097Z,10.61
2017-12-24T10:10:56.878Z,10.63
2017-12-24T10:13:24.553Z,10.60
2017-12-24T10:15:52.129Z,10.64
2017-12-24T10:18:19.668Z,10.61
2017-12-24T10:20:47.228Z,10.61
2017-12-24T10:23:14.752Z,10.62
2017-12-24T10:25:42.463Z,10.64
2017-12-24T10:28:09.996Z,10.62
2017-12-24T10:30:37.638Z,10.67
2017-12-24T10:33:05.161Z,10.72
2017-12-24T10:35:32.696Z,10.62
2017-12-24T10:38:00.350Z,10.73
2017-12-24T10:40:28.102Z,10.69
2017-12-24T10:42:55.650Z,10.71
2017-12-24T10:45:23.459Z,10.78
2017-12-24T10:47:51.029Z,10.75
2017-12-24T10:50:18.556Z,10.73
2017-12-24T10:52:46.110Z,10.71
2017-12-24T10:55:13.649Z,10.69
2017-12-24T10:57:41.175Z,10.66
2017-12-24T11:00:08.700Z,10.75
2017-12-24T11:02:36.226Z,10.75
2017-12-24T11:05:03.770Z,10.68
2017-12-24T11:07:31.289Z,10.73
2017-12-24T11:09:58.810Z,10.70
2017-12-24T11:12:26.328Z,10.68
2017-12-24T11:14:53.850Z,10.69
2017-12-24T11:17:21.378Z,10.67
2017-12-24T11:19:48.898Z,10.63
2017-12-24T11:22:16.435Z,10.62
2017-12-24T11:24:43.957Z,10.60
2017-12-24T11:27:11.481Z,10.67
2017-12-24T11:29:39.010Z,10.65
2017-12-24T11:32:06.533Z,10.64
2017-12-24T11:34:34.053Z,10.64
2017-12-24T11:37:01.592Z,10.69
2017-12-24T11:39:29.134Z,10.65
2017-12-24T11:41:56.657Z,10.64
2017-12-24T11:44:24.176Z,10.77
2017-12-24T11:46:51.697Z,10.70
2017-12-24T11:49:19.229Z,10.73
2017-12-24T11:51:46.766Z,10.77
2017-12-24T11:54:14.304Z,10.71
2017-12-24T11:56:41.818Z,10.75
2017-12-24T11:59:09.342Z,10.78
2017-12-24T12:01:36.854Z,10.72
2017-12-24T12:04:04.369Z,10.81
2017-12-24T12:06:31.899Z,10.78
2017-12-24T12:08:59.426Z,10.85
2017-12-24T12:11:26.943Z,10.78
2017-12-24T12:13:54.479Z,10.82
2017-12-24T12:16:21.998Z,10.84
2017-12-24T12:18:49.520Z,10.79
2017-12-24T12:21:17.060Z,10.79
2017-12-24T12:23:44.587Z,10.85
2017-12-24T12:26:12.592Z,10.75
2017-12-24T12:28:40.117Z,10.78
2017-12-24T12:31:07.645Z,10.75
2017-12-24T12:33:35.181Z,10.74
2017-12-24T12:36:02.688Z,10.84
2017-12-24T12:38:30.245Z,10.78
2017-12-24T12:40:57.769Z,10.75
2017-12-24T12:43:25.283Z,10.76
2017-12-24T12:45:52.830Z,10.74
2017-12-24T12:48:20.387Z,10.71
2017-12-24T12:50:47.928Z,10.76
2017-12-24T12:53:15.462Z,10.80
2017-12-24T12:55:42.988Z,10.78
2017-12-24T12:58:10.510Z,10.82
2017-12-24T13:00:38.037Z,10.86
2017-12-24T13:03:05.557Z,10.77
2017-12-24T13:05:33.097Z,10.85
2017-12-24T13:08:00.667Z,10.81
2017-12-24T13:10:28.211Z,10.85
2017-12-24T13:12:55.750Z,10.77
2017-12-24T13:15:23.281Z,10.81
2017-12-24T13:17:50.792Z,10.83
2017-12-24T13:20:18.313Z,10.84
2017-12-24T13:22:45.840Z,10.86
2017-12-24T13:25:13.369Z,10.87
2017-12-24T13:27:40.893Z,10.85
2017-12-24T13:30:08.422Z,10.87
2017-12-24T13:32:35.965Z,10.84
2017-12-24T13:35:03.480Z,10.88
2017-12-24T13:37:30.998Z,10.89
2017-12-24T13:39:58.513Z,10.86
2017-12-24T13:42:26.048Z,10.88
2017-12-24T13:44:53.568Z,10.90
2017-12-24T13:47:21.080Z,10.88
2017-12-24T13:49:48.601Z,10.87
2017-12-24T13:52:16.120Z,10.93
2017-12-24T13:54:43.641Z,10.92
2017-12-24T13:57:11.170Z,10.92
2017-12-24T13:59:38.694Z,10.93
2017-12-24T14:02:06.217Z,10.91
2017-12-24T14:04:33.749Z,10.93
2017-12-24T14:07:01.277Z,10.91
2017-12-24T14:09:28.797Z,10.95
2017-12-24T14:11:56.329Z,10.90
2017-12-24T14:14:23.856Z,10.93
2017-12-24T14:16:51.378Z,10.92
2017-12-24T14:19:18.906Z,10.90
2017-12-24T14:21:46.434Z,10.91
2017-12-24T14:24:13.948Z,10.94
2017-12-24T14:26:41.466Z,10.90
2017-12-24T14:29:08.985Z,10.82
2017-12-24T14:31:36.506Z,10.86
2017-12-24T14:34:04.020Z,10.83
2017-12-24T14:36:31.534Z,10.86
2017-12-24T14:38:59.053Z,10.82
2017-12-24T14:41:26.574Z,10.83
2017-12-24T14:43:54.096Z,10.81
2017-12-24T14:46:21.625Z,10.84
2017-12-24T14:48:49.148Z,10.82
2017-12-24T14:51:16.657Z,10.83
2017-12-24T14:53:44.168Z,10.83
2017-12-24T14:56:11.698Z,10.84
2017-12-24T14:58:39.210Z,10.83
2017-12-24T15:01:06.736Z,10.82
2017-12-24T15:03:34.245Z,10.81
2017-12-24T15:06:01.766Z,10.78
2017-12-24T15:08:29.282Z,10.82
2017-12-24T15:10:56.839Z,10.78
2017-12-24T15:13:24.357Z,10.82
2017-12-24T15:15:51.875Z,10.81
2017-12-24T15:18:19.383Z,10.81
2017-12-24T15:20:46.905Z,10.83
2017-12-24T15:23:14.424Z,10.80
2017-12-24T15:25:41.946Z,10.79
2017-12-24T15:28:09.454Z,10.77
2017-12-24T15:30:36.977Z,10.79
2017-12-24T15:33:04.488Z,10.79
2017-12-24T15:35:32.003Z,10.83
2017-12-24T15:37:59.518Z,10.82
2017-12-24T15:40:27.025Z,10.75
2017-12-24T15:42:54.537Z,10.82
2017-12-24T15:45:22.058Z,10.78
2017-12-24T15:47:49.578Z,10.77
2017-12-24T15:50:17.094Z,10.79
2017-12-24T15:52:44.618Z,10.82
2017-12-24T15:55:12.130Z,10.76
2017-12-24T15:57:39.636Z,10.73
2017-12-24T16:00:07.154Z,10.71
2017-12-24T16:02:34.667Z,10.76
2017-12-24T16:05:02.177Z,10.74
2017-12-24T16:07:29.687Z,10.70
2017-12-24T16:09:57.193Z,10.75
2017-12-24T16:12:24.705Z,10.72
2017-12-24T16:14:52.214Z,10.74
2017-12-24T16:17:19.743Z,10.71
2017-12-24T16:19:47.262Z,10.71
2017-12-24T16:22:14.777Z,10.68
2017-12-24T16:24:42.726Z,10.65
2017-12-24T16:27:10.233Z,10.68
2017-12-24T16:29:37.743Z,10.67
2017-12-24T16:32:05.523Z,10.66
2017-12-24T16:34:33.033Z,10.64
2017-12-24T16:37:00.582Z,10.65
2017-12-24T16:39:28.101Z,10.65
2017-12-24T16:41:55.609Z,10.63
2017-12-24T16:44:23.125Z,10.58
2017-12-24T16:46:50.637Z,10.54
2017-12-24T16:49:18.149Z,10.52
2017-12-24T16:51:45.654Z,10.55
2017-12-24T16:54:13.161Z,10.51
2017-12-24T16:56:40.673Z,10.48
2017-12-24T16:59:08.181Z,10.51
2017-12-24T17:01:35.702Z,10.50
2017-12-24T17:04:03.210Z,10.49
2017-12-24T17:06:30.789Z,10.47
2017-12-24T17:08:58.501Z,10.46
2017-12-24T17:11:26.020Z,10.44
2017-12-24T17:13:53.586Z,10.46
2017-12-24T17:16:21.185Z,10.42
2017-12-24T17:18:48.825Z,10.42
2017-12-24T17:21:16.481Z,10.40
2017-12-24T17:23:44.007Z,10.39
2017-12-24T17:26:11.795Z,10.38
2017-12-24T17:28:39.313Z,10.38
2017-12-24T17:31:07.090Z,10.41
2017-12-24T17:33:34.670Z,10.42
2017-12-24T17:36:02.205Z,10.40
2017-12-24T17:38:29.901Z,10.41
2017-12-24T17:40:57.509Z,10.41
2017-12-24T17:43:25.066Z,10.39
2017-12-24T17:45:52.607Z,10.38
2017-12-24T17:48:20.236Z,10.41
2017-12-24T17:50:47.783Z,10.36
2017-12-24T17:53:15.368Z,10.37
2017-12-24T17:55:42.921Z,10.38
2017-12-24T17:58:10.435Z,10.36
2017-12-24T18:00:37.949Z,10.39
2017-12-24T18:03:05.509Z,10.34
2017-12-24T18:05:33.196Z,10.37
2017-12-24T18:08:00.778Z,10.38
2017-12-24T18:10:28.338Z,10.40
2017-12-24T18:12:55.850Z,10.39
2017-12-24T18:15:23.367Z,10.38
2017-12-24T18:17:50.890Z,10.34
2017-12-24T18:20:18.407Z,10.38
2017-12-24T18:22:45.928Z,10.34
2017-12-24T18:25:13.442Z,10.35
2017-12-24T18:27:40.964Z,10.34
2017-12-24T18:30:08.494Z,10.35
2017-12-24T18:32:36.052Z,10.30
2017-12-24T18:35:03.608Z,10.37
2017-12-24T18:37:31.157Z,10.35
2017-12-24T18:39:58.664Z,10.36
2017-12-24T18:42:26.272Z,10.35
2017-12-24T18:44:53.783Z,10.34
2017-12-24T18:47:21.380Z,10.37
2017-12-24T18:49:49.094Z,10.39
2017-12-24T18:52:16.601Z,10.34
2017-12-24T18:54:44.186Z,10.35
2017-12-24T18:57:11.698Z,10.38
2017-12-24T18:59:39.261Z,10.36
2017-12-24T19:02:06.870Z,10.35
2017-12-24T19:04:34.462Z,10.36
2017-12-24T19:07:02.297Z,10.37
2017-12-24T19:09:29.964Z,10.35
2017-12-24T19:11:57.552Z,10.37
2017-12-24T19:14:25.109Z,10.38
2017-12-24T19:16:52.727Z,10.38
2017-12-24T19:19:20.290Z,10.37
2017-12-24T19:21:47.954Z,10.39
2017-12-24T19:24:15.527Z,10.38
2017-12-24T19:26:43.082Z,10.36
2017-12-24T19:29:10.613Z,10.36
2017-12-24T19:31:38.180Z,10.40
2017-12-24T19:34:05.769Z,10.42
2017-12-24T19:36:33.429Z,10.46
2017-12-24T19:39:00.958Z,10.46
2017-12-24T19:41:28.482Z,10.47
2017-12-24T19:43:55.992Z,10.47
2017-12-24T19:46:23.758Z,10.49
2017-12-24T19:48:51.325Z,10.48
2017-12-24T19:51:18.899Z,10.52
2017-12-24T19:53:46.429Z,10.52
2017-12-24T19:56:13.958Z,10.52
2017-12-24T19:58:41.482Z,10.54
2017-12-24T20:01:09.075Z,10.59
2017-12-24T20:03:36.585Z,10.57
2017-12-24T20:06:04.111Z,10.58
2017-12-24T20:08:31.706Z,10.57
2017-12-24T20:10:59.283Z,10.60
2017-12-24T20:13:26.794Z,10.53
2017-12-24T20:15:54.382Z,10.53
2017-12-24T20:18:21.951Z,10.52
2017-12-24T20:20:49.493Z,10.51
2017-12-24T20:23:17.022Z,10.55
2017-12-24T20:25:44.618Z,10.54
2017-12-24T20:28:12.169Z,10.53
2017-12-24T20:30:39.750Z,10.50
2017-12-24T20:33:07.270Z,10.55
2017-12-24T20:35:34.792Z,10.57
2017-12-24T20:38:02.428Z,10.56
2017-12-24T20:40:29.974Z,10.56
2017-12-24T20:42:57.582Z,10.59
2017-12-24T20:45:25.139Z,10.57
2017-12-24T20:47:52.674Z,10.58
2017-12-24T20:50:20.193Z,10.57
2017-12-24T20:52:47.786Z,10.56
2017-12-24T20:55:15.312Z,10.57
2017-12-24T20:57:42.832Z,10.58
2017-12-24T21:00:10.468Z,10.60
2017-12-24T21:02:37.993Z,10.61
2017-12-24T21:05:05.593Z,10.58
2017-12-24T21:07:33.147Z,10.61
2017-12-24T21:10:00.681Z,10.61
2017-12-24T21:12:28.226Z,10.58
2017-12-24T21:14:55.744Z,10.61
2017-12-24T21:17:23.254Z,10.57
2017-12-24T21:19:50.774Z,10.60
2017-12-24T21:22:18.285Z,10.61
2017-12-24T21:24:45.804Z,10.57
2017-12-24T21:27:13.434Z,10.57
2017-12-24T21:29:40.984Z,10.54
2017-12-24T21:32:08.533Z,10.58
2017-12-24T21:34:36.053Z,10.50
2017-12-24T21:37:03.586Z,10.50
2017-12-24T21:39:31.107Z,10.52
2017-12-24T21:41:58.634Z,10.54
2017-12-24T21:44:26.213Z,10.53
2017-12-24T21:46:53.801Z,10.53
2017-12-24T21:49:21.414Z,10.55
2017-12-24T21:51:48.956Z,10.51
2017-12-24T21:54:16.494Z,10.52
2017-12-24T21:56:44.148Z,10.76
2017-12-24T21:59:11.676Z,10.68
2017-12-24T22:01:40.095Z,10.71
2017-12-24T22:04:07.635Z,10.74
2017-12-24T22:06:35.179Z,10.70
2017-12-24T22:09:02.707Z,10.65
2017-12-24T22:11:30.232Z,10.65
2017-12-24T22:13:57.786Z,10.65
2017-12-24T22:16:25.338Z,10.63
2017-12-24T22:18:52.871Z,10.68
2017-12-24T22:21:20.385Z,10.63
2017-12-24T22:23:47.919Z,10.66
2017-12-24T22:26:15.430Z,10.64
2017-12-24T22:28:42.959Z,10.64
2017-12-24T22:31:10.480Z,10.66
2017-12-24T22:33:38.047Z,10.69
2017-12-24T22:36:05.567Z,10.66
2017-12-24T22:38:33.081Z,10.66
2017-12-24T22:41:00.603Z,10.70
2017-12-24T22:43:28.121Z,10.68
2017-12-24T22:45:55.648Z,10.68
2017-12-24T22:48:23.166Z,10.70
2017-12-24T22:50:50.689Z,10.75
2017-12-24T22:53:18.201Z,10.71
2017-12-24T22:55:45.759Z,10.74
2017-12-24T22:58:13.281Z,10.73
2017-12-24T23:00:40.801Z,10.69
2017-12-24T23:03:08.322Z,10.73
2017-12-24T23:05:35.869Z,10.77
2017-12-24T23:08:03.408Z,10.76
2017-12-24T23:10:30.941Z,10.73
2017-12-24T23:12:58.457Z,10.75
2017-12-24T23:15:25.981Z,10.74
2017-12-24T23:17:53.501Z,10.75
2017-12-24T23:20:21.349Z,10.75
2017-12-24T23:22:48.909Z,10.76
2017-12-24T23:25:16.479Z,10.79
2017-12-24T23:27:44.049Z,10.79
2017-12-24T23:30:11.560Z,10.80
2017-12-24T23:32:39.072Z,10.78
2017-12-24T23:35:06.847Z,10.82
2017-12-24T23:37:34.389Z,10.76
2017-12-24T23:40:01.905Z,10.78
2017-12-24T23:42:29.522Z,10.83
2017-12-24T23:44:57.086Z,10.82
2017-12-24T23:47:24.810Z,10.78
2017-12-24T23:49:52.316Z,10.75
2017-12-24T23:52:19.837Z,10.76
2017-12-24T23:54:47.377Z,10.78
2017-12-24T23:57:14.907Z,10.75
2017-12-24T23:59:42.417Z,10.74
